Time;durP1;ratioP1;P1;durP2;ratioP2;P2;SDS_P1;SDS_P2;PMS_P1;PMS_P2;Temp;Humidity;BMP_temperature;BMP_pressure;BME280_temperature;BME280_humidity;BME280_pressure;Samples;Min_cycle;Max_cycle;Signal;HPM_P1;HPM_P2
2023/07/19 00:00:57;;;;;;;12.93;7.20;;;;;;;14.29;100.00;92986.66;2543363;23;20005;-82
2023/07/19 00:02:10;;;;;;;15.40;7.70;;;;;;;14.29;100.00;92984.72;2528412;23;20093;-82
2023/07/19 00:03:20;;;;;;;14.75;7.60;;;;;;;14.25;100.00;92980.66;2533449;23;20010;-81
2023/07/19 00:04:29;;;;;;;13.80;7.65;;;;;;;14.23;100.00;92981.09;2531285;23;20010;-82
2023/07/19 00:05:37;;;;;;;15.43;6.88;;;;;;;14.20;100.00;92987.38;2532778;23;20010;-82
2023/07/19 00:06:45;;;;;;;10.93;7.10;;;;;;;14.15;100.00;92987.19;2531530;23;20112;-82
2023/07/19 00:07:52;;;;;;;12.93;7.30;;;;;;;14.14;100.00;92983.00;2531203;23;20421;-82
2023/07/19 00:09:02;;;;;;;12.73;7.13;;;;;;;14.01;100.00;92975.78;2543010;23;20630;-82
2023/07/19 00:10:12;;;;;;;15.07;7.10;;;;;;;14.01;100.00;92986.53;2543388;23;20317;-80
2023/07/19 00:11:21;;;;;;;10.45;6.97;;;;;;;14.04;100.00;92976.81;2532632;23;20014;-81
2023/07/19 00:12:30;;;;;;;11.05;7.07;;;;;;;14.08;100.00;92980.13;2535091;23;20036;-81
2023/07/19 00:13:40;;;;;;;11.33;7.13;;;;;;;14.05;100.00;92976.41;2546461;23;20048;-82
2023/07/19 00:14:47;;;;;;;16.38;7.10;;;;;;;14.10;100.00;92977.75;2545854;23;20441;-81
2023/07/19 00:15:56;;;;;;;12.38;7.07;;;;;;;14.14;100.00;92972.25;2533093;23;20112;-81
2023/07/19 00:17:07;;;;;;;15.45;7.43;;;;;;;14.11;100.00;92977.31;2534352;23;20279;-82
2023/07/19 00:18:15;;;;;;;12.55;7.00;;;;;;;14.08;100.00;92970.13;2536920;23;20017;-82
2023/07/19 00:19:22;;;;;;;11.18;7.30;;;;;;;14.09;100.00;92976.25;2545945;23;20006;-81
2023/07/19 00:20:30;;;;;;;13.45;7.50;;;;;;;14.11;100.00;92971.94;2535184;23;20421;-82
2023/07/19 00:21:40;;;;;;;19.15;7.57;;;;;;;14.06;100.00;92963.72;2524223;23;20014;-82
2023/07/19 00:22:51;;;;;;;13.15;7.70;;;;;;;14.06;100.00;92964.47;2536547;23;20330;-82
2023/07/19 00:23:58;;;;;;;16.10;7.45;;;;;;;14.04;100.00;92958.75;2534391;23;20057;-82
2023/07/19 00:25:05;;;;;;;11.23;7.05;;;;;;;14.09;100.00;92960.13;2535345;23;19997;-81
2023/07/19 00:26:08;;;;;;;15.52;7.75;;;;;;;14.14;100.00;92966.88;2534534;23;20006;-82
2023/07/19 00:27:17;;;;;;;15.07;7.50;;;;;;;14.04;100.00;92961.44;2533389;23;20512;-82
2023/07/19 00:28:23;;;;;;;12.05;7.55;;;;;;;14.00;100.00;92966.19;2525280;23;20118;-81
2023/07/19 00:29:33;;;;;;;10.00;6.95;;;;;;;13.94;100.00;92959.91;2546242;23;20006;-82
2023/07/19 00:30:44;;;;;;;14.30;7.22;;;;;;;13.98;100.00;92957.84;2545048;23;20017;-81
2023/07/19 00:31:57;;;;;;;15.18;7.18;;;;;;;13.94;100.00;92957.22;2535347;23;20048;-81
2023/07/19 00:33:06;;;;;;;14.93;7.60;;;;;;;13.95;100.00;92955.28;2534715;23;20461;-82
2023/07/19 00:34:16;;;;;;;11.38;6.93;;;;;;;13.97;100.00;92953.66;2535958;23;20012;-82
2023/07/19 00:35:26;;;;;;;13.55;7.90;;;;;;;13.87;100.00;92952.09;2556710;23;20094;-82
2023/07/19 00:36:32;;;;;;;13.10;7.50;;;;;;;13.88;100.00;92956.31;2544549;23;20415;-81
2023/07/19 00:37:39;;;;;;;14.52;7.82;;;;;;;13.70;100.00;92954.28;2522200;23;20010;-82
2023/07/19 00:38:52;;;;;;;12.55;7.60;;;;;;;13.78;100.00;92957.44;2534564;23;20010;-82
2023/07/19 00:40:08;;;;;;;16.17;7.47;;;;;;;13.76;100.00;92952.50;2544500;23;20549;-81
2023/07/19 00:41:16;;;;;;;16.02;7.07;;;;;;;13.85;100.00;92943.75;2534945;23;20010;-82
2023/07/19 00:42:26;;;;;;;10.68;6.72;;;;;;;13.86;100.00;92947.94;2522666;23;20006;-81
2023/07/19 00:43:35;;;;;;;15.00;7.80;;;;;;;13.84;100.00;92945.69;2546496;23;20089;-80
2023/07/19 00:44:45;;;;;;;17.88;7.60;;;;;;;13.84;100.00;92939.56;2536499;23;20012;-81
2023/07/19 00:46:00;;;;;;;15.20;7.82;;;;;;;13.85;100.00;92957.19;2545844;23;20135;-81
2023/07/19 00:47:11;;;;;;;15.45;7.75;;;;;;;13.85;100.00;92951.81;2545378;23;20010;-82
2023/07/19 00:48:22;;;;;;;15.15;8.57;;;;;;;13.86;100.00;92948.66;2540459;23;20131;-81
2023/07/19 00:49:33;;;;;;;15.95;7.35;;;;;;;13.86;100.00;92961.34;2549959;23;20061;-82
2023/07/19 00:50:43;;;;;;;13.75;7.65;;;;;;;13.82;100.00;92955.38;2547194;23;20370;-81
2023/07/19 00:51:53;;;;;;;15.80;8.15;;;;;;;13.79;100.00;92956.25;2548465;23;20009;-81
2023/07/19 00:53:05;;;;;;;16.67;8.25;;;;;;;13.81;100.00;92960.00;2535940;23;20396;-82
2023/07/19 00:54:15;;;;;;;15.07;7.85;;;;;;;13.72;100.00;92957.25;2536056;23;20126;-82
2023/07/19 00:55:22;;;;;;;15.65;7.90;;;;;;;13.78;100.00;92960.13;2524786;23;20414;-81
2023/07/19 00:56:38;;;;;;;16.77;7.75;;;;;;;13.75;100.00;92952.97;2523260;23;20006;-82
2023/07/19 00:57:47;;;;;;;15.45;8.20;;;;;;;13.74;100.00;92962.97;2535330;23;20010;-82
2023/07/19 00:58:56;;;;;;;14.82;8.07;;;;;;;13.70;100.00;92961.59;2547700;23;20085;-81
2023/07/19 01:00:07;;;;;;;19.20;8.10;;;;;;;13.68;100.00;92961.25;2544469;23;20016;-82
2023/07/19 01:01:15;;;;;;;14.82;7.55;;;;;;;13.75;100.00;92961.00;2523614;23;20392;-82
2023/07/19 01:02:24;;;;;;;16.45;8.50;;;;;;;13.74;100.00;92952.22;2522454;23;20018;-81
2023/07/19 01:03:36;;;;;;;15.32;8.00;;;;;;;13.71;100.00;92947.72;2531801;23;20010;-82
2023/07/19 01:04:44;;;;;;;15.00;8.10;;;;;;;13.76;100.00;92962.50;2523555;23;20006;-82
2023/07/19 01:05:58;;;;;;;12.88;7.78;;;;;;;13.73;100.00;92955.31;2534861;23;20097;-82
2023/07/19 01:06:59;;;;;;;15.10;7.50;;;;;;;13.77;100.00;92967.44;2555733;23;20016;-82
2023/07/19 01:08:03;;;;;;;13.80;7.70;;;;;;;13.77;100.00;92964.00;2556780;23;20364;-81
2023/07/19 01:09:11;;;;;;;15.88;7.30;;;;;;;13.81;100.00;92959.25;2544121;23;20005;-83
2023/07/19 01:10:23;;;;;;;13.75;7.15;;;;;;;13.74;100.00;92965.63;2534912;23;20001;-81
2023/07/19 01:11:33;;;;;;;12.32;7.70;;;;;;;13.73;100.00;92974.13;2534239;23;20092;-82
2023/07/19 01:12:45;;;;;;;12.75;6.70;;;;;;;13.77;100.00;92964.00;2546067;23;20060;-82
2023/07/19 01:13:57;;;;;;;11.60;7.57;;;;;;;13.75;100.00;92964.44;2534264;23;20083;-81
2023/07/19 01:15:09;;;;;;;13.75;7.10;;;;;;;13.76;100.00;92957.13;2523975;23;20006;-82
2023/07/19 01:16:20;;;;;;;12.40;7.85;;;;;;;13.74;100.00;92962.19;2524357;23;20476;-81
2023/07/19 01:17:33;;;;;;;15.65;7.65;;;;;;;13.65;100.00;92964.81;2535678;23;20006;-82
2023/07/19 01:18:42;;;;;;;11.10;6.85;;;;;;;13.89;100.00;92973.91;2534634;23;20499;-82
2023/07/19 01:19:53;;;;;;;11.95;7.10;;;;;;;13.92;100.00;92972.31;2535268;23;20100;-82
2023/07/19 01:21:03;;;;;;;10.82;6.90;;;;;;;13.85;100.00;92978.69;2556259;23;20045;-81
2023/07/19 01:22:12;;;;;;;15.18;7.63;;;;;;;13.86;100.00;92966.72;2534090;23;20001;-82
2023/07/19 01:23:20;;;;;;;15.30;7.57;;;;;;;13.88;100.00;92967.06;2523320;23;20786;-82
2023/07/19 01:24:28;;;;;;;16.52;7.97;;;;;;;13.88;100.00;92960.94;2522426;23;20046;-81
2023/07/19 01:25:34;;;;;;;16.55;8.27;;;;;;;13.84;100.00;92966.44;2546538;23;20463;-83
2023/07/19 01:26:43;;;;;;;17.48;8.00;;;;;;;13.83;100.00;92949.56;2557300;23;20047;-82
2023/07/19 01:27:51;;;;;;;17.67;7.35;;;;;;;13.87;100.00;92952.09;2544605;23;20342;-82
2023/07/19 01:29:03;;;;;;;14.35;7.22;;;;;;;13.80;100.00;92960.44;2523059;23;20081;-82
2023/07/19 01:30:14;;;;;;;15.65;7.88;;;;;;;13.72;100.00;92959.19;2524189;23;20006;-82
2023/07/19 01:31:23;;;;;;;14.45;7.50;;;;;;;13.82;100.00;92966.13;2536093;23;20010;-82
2023/07/19 01:32:31;;;;;;;13.38;8.32;;;;;;;13.76;100.00;92965.19;2556860;23;20245;-82
2023/07/19 01:33:39;;;;;;;17.52;7.50;;;;;;;13.70;100.00;92975.03;2556722;23;20005;-83
2023/07/19 01:34:53;;;;;;;17.90;7.95;;;;;;;13.72;100.00;92967.25;2533915;23;20267;-82
2023/07/19 01:36:04;;;;;;;17.33;8.20;;;;;;;13.80;100.00;92976.56;2526057;23;20469;-83
2023/07/19 01:37:15;;;;;;;14.93;7.72;;;;;;;13.79;100.00;92980.44;2522539;23;20357;-83
2023/07/19 01:38:25;;;;;;;18.98;8.80;;;;;;;13.75;100.00;92972.50;2546425;23;20005;-82
2023/07/19 01:39:36;;;;;;;17.50;8.60;;;;;;;13.73;100.00;92971.44;2533678;23;20014;-82
2023/07/19 01:40:44;;;;;;;20.23;9.15;;;;;;;13.72;100.00;92968.00;2523787;23;20018;-83
2023/07/19 01:41:57;;;;;;;18.10;8.55;;;;;;;13.74;100.00;92970.25;2522690;23;20042;-83
2023/07/19 01:43:06;;;;;;;14.38;8.15;;;;;;;13.73;100.00;92966.06;2536634;23;20006;-82
2023/07/19 01:44:15;;;;;;;14.98;8.20;;;;;;;13.66;100.00;92969.03;2545828;23;20016;-83
2023/07/19 01:45:25;;;;;;;19.38;7.70;;;;;;;13.66;100.00;92969.78;2533389;23;20006;-83
2023/07/19 01:46:35;;;;;;;;;;;;;;;13.79;100.00;92969.69;2535481;23;20313;-82
2023/07/19 01:47:47;;;;;;;18.90;8.30;;;;;;;13.73;100.00;92968.75;2533409;23;19915;-82
2023/07/19 01:48:51;;;;;;;17.02;8.23;;;;;;;13.67;100.00;92963.19;2534060;23;20145;-83
2023/07/19 01:49:59;;;;;;;18.20;8.45;;;;;;;13.62;100.00;92963.78;2545087;23;20444;-82
2023/07/19 01:51:07;;;;;;;21.55;8.63;;;;;;;13.58;100.00;92961.22;2533232;23;20064;-83
2023/07/19 01:52:18;;;;;;;26.50;8.75;;;;;;;13.51;100.00;92958.75;2546306;23;20032;-82
2023/07/19 01:53:31;;;;;;;19.23;8.43;;;;;;;13.50;100.00;92959.97;2556683;23;20514;-82
2023/07/19 01:54:39;;;;;;;14.40;8.40;;;;;;;13.53;100.00;92963.72;2555698;23;20463;-82
2023/07/19 01:55:44;;;;;;;17.48;8.35;;;;;;;13.47;100.00;92960.81;2533067;23;20002;-83
2023/07/19 01:56:56;;;;;;;18.90;8.35;;;;;;;13.36;100.00;92952.41;2534099;23;20064;-82
2023/07/19 01:58:06;;;;;;;15.82;8.15;;;;;;;13.44;100.00;92958.28;2534802;23;20002;-82
2023/07/19 01:59:15;;;;;;;25.17;8.88;;;;;;;13.42;100.00;92958.72;2536164;23;20080;-83
2023/07/19 02:00:23;;;;;;;16.60;8.77;;;;;;;13.49;100.00;92961.16;2546267;23;20029;-83
2023/07/19 02:01:30;;;;;;;21.58;9.80;;;;;;;13.45;100.00;92949.03;2533656;23;20089;-82
2023/07/19 02:02:41;;;;;;;18.92;8.80;;;;;;;13.46;100.00;92948.59;2533597;23;20113;-82
2023/07/19 02:03:50;;;;;;;18.10;8.80;;;;;;;13.47;100.00;92949.34;2547982;23;20009;-83
2023/07/19 02:05:01;;;;;;;23.98;8.88;;;;;;;13.52;100.00;92948.78;2544271;23;20013;-82
2023/07/19 02:06:08;;;;;;;26.40;9.18;;;;;;;13.41;100.00;92949.16;2547648;23;20004;-82
2023/07/19 02:07:20;;;;;;;23.17;8.95;;;;;;;13.45;100.00;92947.09;2557139;23;20009;-81
2023/07/19 02:08:31;;;;;;;21.65;9.10;;;;;;;13.44;100.00;92950.22;2546556;23;20016;-83
2023/07/19 02:09:40;;;;;;;30.08;9.75;;;;;;;13.43;100.00;92948.72;2546675;23;20006;-83
2023/07/19 02:10:49;;;;;;;25.30;9.45;;;;;;;13.45;100.00;92943.66;2545602;23;20016;-82
2023/07/19 02:11:57;;;;;;;19.88;8.65;;;;;;;13.47;100.00;92950.09;2545692;23;20005;-82
2023/07/19 02:13:07;;;;;;;20.50;9.52;;;;;;;13.49;100.00;92955.03;2533199;23;20010;-82
2023/07/19 02:14:16;;;;;;;20.33;9.90;;;;;;;13.47;100.00;92952.78;2535550;23;20010;-83
2023/07/19 02:15:25;;;;;;;25.17;9.15;;;;;;;13.53;100.00;92952.97;2534288;23;20006;-82
2023/07/19 02:16:32;;;;;;;24.13;9.55;;;;;;;13.47;100.00;92958.13;2523771;23;20006;-82
2023/07/19 02:17:38;;;;;;;21.55;9.25;;;;;;;13.39;100.00;92956.13;2534637;23;20392;-82
2023/07/19 02:18:50;;;;;;;20.27;10.23;;;;;;;13.34;100.00;92954.78;2545484;23;20415;-82
2023/07/19 02:20:00;;;;;;;19.25;9.20;;;;;;;13.39;100.00;92948.09;2546442;23;20447;-82
2023/07/19 02:21:13;;;;;;;20.58;8.65;;;;;;;13.41;100.00;92951.09;2533843;23;20014;-82
2023/07/19 02:22:23;;;;;;;22.35;9.15;;;;;;;13.42;100.00;92947.97;2524861;23;20049;-82
2023/07/19 02:23:32;;;;;;;22.35;9.50;;;;;;;13.35;100.00;92953.59;2524035;23;20017;-82
2023/07/19 02:24:41;;;;;;;25.38;10.50;;;;;;;13.29;100.00;92952.66;2523590;23;20010;-82
2023/07/19 02:25:54;;;;;;;18.58;9.07;;;;;;;13.27;100.00;92953.09;2523203;23;20061;-82
2023/07/19 02:27:05;;;;;;;18.98;8.48;;;;;;;13.28;100.00;92954.59;2536993;23;20353;-82
2023/07/19 02:28:20;;;;;;;19.80;9.65;;;;;;;13.27;100.00;92955.78;2534278;23;20302;-82
2023/07/19 02:29:29;;;;;;;18.67;9.52;;;;;;;13.22;100.00;92959.03;2525881;23;20413;-82
2023/07/19 02:30:44;;;;;;;19.73;9.60;;;;;;;13.29;100.00;92961.44;2524014;23;20002;-83
2023/07/19 02:31:58;;;;;;;20.70;9.35;;;;;;;13.31;100.00;92959.09;2536134;23;20055;-83
2023/07/19 02:33:06;;;;;;;16.08;8.05;;;;;;;13.32;100.00;92963.28;2537483;23;20052;-82
2023/07/19 02:34:18;;;;;;;15.25;8.63;;;;;;;13.31;100.00;92963.72;2546073;23;20416;-82
2023/07/19 02:35:29;;;;;;;20.45;9.35;;;;;;;13.23;100.00;92960.53;2547277;23;20379;-83
2023/07/19 02:36:40;;;;;;;18.77;9.13;;;;;;;13.27;100.00;92965.78;2545473;23;20015;-83
2023/07/19 02:37:49;;;;;;;24.45;10.02;;;;;;;13.21;100.00;92970.16;2548213;23;20085;-82
2023/07/19 02:38:58;;;;;;;18.38;8.77;;;;;;;13.18;100.00;92968.34;2546358;23;20050;-82
2023/07/19 02:40:12;;;;;;;24.73;9.95;;;;;;;13.25;100.00;92968.88;2547456;23;20086;-81
2023/07/19 02:41:20;;;;;;;16.05;9.23;;;;;;;13.26;100.00;92975.75;2535046;23;20002;-82
2023/07/19 02:42:28;;;;;;;22.30;9.18;;;;;;;13.36;100.00;92973.88;2523753;23;20017;-83
2023/07/19 02:43:38;;;;;;;20.20;9.73;;;;;;;13.43;100.00;92970.19;2522959;23;20209;-83
2023/07/19 02:44:50;;;;;;;25.17;9.35;;;;;;;13.48;100.00;92970.41;2535048;23;20056;-82
2023/07/19 02:45:58;;;;;;;26.00;10.18;;;;;;;13.44;100.00;92971.72;2533743;23;20140;-82
2023/07/19 02:47:09;;;;;;;22.52;10.05;;;;;;;13.42;100.00;92977.50;2522788;23;20034;-83
2023/07/19 02:48:20;;;;;;;23.33;10.18;;;;;;;13.49;100.00;92977.25;2525307;23;19999;-82
2023/07/19 02:49:30;;;;;;;21.30;10.15;;;;;;;13.50;100.00;92978.75;2525970;23;20010;-83
2023/07/19 02:50:46;;;;;;;23.80;9.95;;;;;;;13.57;100.00;92970.47;2538388;23;20005;-83
2023/07/19 02:52:00;;;;;;;26.35;11.02;;;;;;;13.56;100.00;92977.03;2548221;23;20012;-82
2023/07/19 02:53:11;;;;;;;25.48;10.57;;;;;;;13.53;100.00;92972.53;2534494;23;20137;-82
2023/07/19 02:54:20;;;;;;;18.83;9.98;;;;;;;13.59;100.00;92981.50;2524180;23;20126;-83
2023/07/19 02:55:31;;;;;;;26.10;9.77;;;;;;;13.62;100.00;92977.19;2523924;23;20010;-82
2023/07/19 02:56:41;;;;;;;19.15;9.93;;;;;;;13.60;100.00;92974.94;2533869;23;20084;-82
2023/07/19 02:57:51;;;;;;;20.88;9.65;;;;;;;13.57;100.00;92981.19;2536652;23;20038;-83
2023/07/19 02:59:03;;;;;;;21.23;9.75;;;;;;;13.52;100.00;92979.09;2546508;23;20025;-83
2023/07/19 03:00:12;;;;;;;21.60;9.93;;;;;;;13.60;100.00;92984.94;2534170;23;20030;-82
2023/07/19 03:01:24;;;;;;;24.05;9.65;;;;;;;13.59;100.00;92986.88;2545859;23;20731;-83
2023/07/19 03:02:36;;;;;;;24.17;9.85;;;;;;;13.55;100.00;92983.56;2544373;23;20084;-82
2023/07/19 03:03:47;;;;;;;21.55;9.82;;;;;;;13.59;100.00;92983.44;2536074;23;20010;-82
2023/07/19 03:04:55;;;;;;;20.15;9.52;;;;;;;13.58;100.00;92980.00;2531072;23;20020;-82
2023/07/19 03:06:05;;;;;;;20.30;9.05;;;;;;;13.59;100.00;92984.19;2534909;23;20006;-82
2023/07/19 03:07:14;;;;;;;20.85;9.90;;;;;;;13.67;100.00;92983.94;2533524;23;20010;-83
2023/07/19 03:08:23;;;;;;;22.73;10.35;;;;;;;13.62;100.00;92987.94;2535495;23;20065;-83
2023/07/19 03:09:33;;;;;;;22.23;9.50;;;;;;;13.61;100.00;92978.41;2544525;23;20091;-83
2023/07/19 03:10:40;;;;;;;20.92;9.70;;;;;;;13.62;100.00;92979.88;2546204;23;20005;-82
2023/07/19 03:11:49;;;;;;;21.15;9.02;;;;;;;13.59;100.00;92986.88;2543595;23;20014;-82
2023/07/19 03:12:55;;;;;;;22.75;10.07;;;;;;;13.60;100.00;92988.38;2546358;23;20025;-82
2023/07/19 03:14:01;;;;;;;23.52;10.18;;;;;;;13.56;100.00;92995.06;2554836;23;19990;-82
2023/07/19 03:15:02;;;;;;;24.88;10.23;;;;;;;13.62;100.00;92996.00;2532131;23;20015;-82
2023/07/19 03:16:09;;;;;;;24.75;9.98;;;;;;;13.59;100.00;92997.63;2528332;23;20010;-82
2023/07/19 03:17:18;;;;;;;28.65;10.18;;;;;;;13.68;100.00;92991.56;2537697;23;20006;-82
2023/07/19 03:18:30;;;;;;;23.80;10.90;;;;;;;13.67;100.00;92990.06;2539357;23;20065;-82
2023/07/19 03:19:40;;;;;;;26.35;10.88;;;;;;;13.67;100.00;92994.69;2538300;23;20056;-81
2023/07/19 03:20:50;;;;;;;22.30;9.35;;;;;;;13.69;100.00;92998.41;2537677;23;20014;-82
2023/07/19 03:22:01;;;;;;;22.58;10.07;;;;;;;13.62;100.00;92993.31;2537290;23;20072;-82
2023/07/19 03:23:10;;;;;;;23.20;10.20;;;;;;;13.60;100.00;93001.78;2538669;23;20064;-82
2023/07/19 03:24:20;;;;;;;21.65;9.82;;;;;;;13.60;100.00;92996.41;2536072;23;20305;-83
2023/07/19 03:25:34;;;;;;;19.20;10.15;;;;;;;13.66;100.00;92995.88;2525809;23;20010;-83
2023/07/19 03:26:41;;;;;;;23.10;10.48;;;;;;;13.69;100.00;92997.69;2536319;23;20009;-83
2023/07/19 03:27:53;;;;;;;23.75;10.48;;;;;;;13.70;100.00;93002.63;2535463;23;20013;-83
2023/07/19 03:29:04;;;;;;;19.17;9.65;;;;;;;13.74;100.00;93010.53;2537714;23;20005;-82
2023/07/19 03:30:11;;;;;;;19.75;9.32;;;;;;;13.77;100.00;93012.34;2548906;23;19997;-82
2023/07/19 03:31:18;;;;;;;21.95;9.20;;;;;;;13.73;100.00;93001.72;2545350;23;20041;-83
2023/07/19 03:32:31;;;;;;;20.95;9.20;;;;;;;13.77;100.00;92994.28;2523972;23;20718;-82
2023/07/19 03:33:42;;;;;;;18.27;8.90;;;;;;;13.79;100.00;93004.63;2537895;23;20002;-82
2023/07/19 03:34:53;;;;;;;21.10;9.73;;;;;;;13.85;100.00;93000.16;2557368;23;20015;-82
2023/07/19 03:36:03;;;;;;;25.92;9.90;;;;;;;13.76;100.00;93000.88;2557601;23;20005;-82
2023/07/19 03:37:13;;;;;;;17.42;9.23;;;;;;;13.76;100.00;92995.50;2544632;23;20009;-82
2023/07/19 03:38:24;;;;;;;27.58;13.80;;;;;;;13.88;100.00;93004.69;2534695;23;20073;-83
2023/07/19 03:39:35;;;;;;;24.85;11.15;;;;;;;13.95;100.00;93006.34;2524872;23;20030;-81
2023/07/19 03:40:43;;;;;;;20.55;11.65;;;;;;;13.87;100.00;93003.16;2525534;23;20007;-82
2023/07/19 03:41:50;;;;;;;19.95;12.50;;;;;;;13.91;100.00;93003.03;2523186;23;20006;-83
2023/07/19 03:43:02;;;;;;;21.98;12.88;;;;;;;13.95;100.00;93009.03;2523716;23;19999;-83
2023/07/19 03:44:17;;;;;;;27.40;12.15;;;;;;;13.85;100.00;93003.59;2536938;23;20014;-82
2023/07/19 03:45:35;;;;;;;22.35;10.55;;;;;;;13.78;100.00;93005.78;2535245;23;20390;-82
2023/07/19 03:46:42;;;;;;;17.88;11.23;;;;;;;13.81;100.00;93007.59;2539856;23;20010;-83
2023/07/19 03:47:55;;;;;;;20.45;10.65;;;;;;;13.82;100.00;93011.78;2535008;23;20002;-82
2023/07/19 03:49:04;;;;;;;20.17;9.80;;;;;;;13.78;100.00;93013.84;2546937;23;20012;-82
2023/07/19 03:50:14;;;;;;;20.00;10.50;;;;;;;13.82;100.00;93014.47;2545186;23;20040;-81
2023/07/19 03:51:23;;;;;;;17.95;9.07;;;;;;;13.79;100.00;93018.06;2524594;23;20407;-82
2023/07/19 03:52:32;;;;;;;20.65;9.77;;;;;;;13.77;100.00;93015.03;2536035;23;20009;-82
2023/07/19 03:53:49;;;;;;;20.75;10.35;;;;;;;13.71;100.00;93014.88;2547456;23;20041;-83
2023/07/19 03:54:59;;;;;;;19.15;9.82;;;;;;;13.80;100.00;93014.16;2548725;23;20425;-83
2023/07/19 03:56:07;;;;;;;20.58;10.65;;;;;;;13.75;100.00;93020.13;2535097;23;20005;-82
2023/07/19 03:57:18;;;;;;;21.38;9.63;;;;;;;13.75;100.00;93020.88;2523519;23;20010;-83
2023/07/19 03:58:28;;;;;;;20.45;10.20;;;;;;;13.85;100.00;93018.97;2535008;23;20033;-82
2023/07/19 03:59:40;;;;;;;19.05;9.07;;;;;;;13.90;100.00;93018.41;2544695;23;20410;-82
2023/07/19 04:00:54;;;;;;;17.52;9.52;;;;;;;13.95;100.00;93025.91;2535643;23;20037;-83
2023/07/19 04:02:05;;;;;;;21.90;10.60;;;;;;;13.92;100.00;93031.41;2537563;23;20084;-83
2023/07/19 04:03:14;;;;;;;24.35;10.88;;;;;;;13.91;100.00;93019.91;2546778;23;20382;-82
2023/07/19 04:04:25;;;;;;;19.55;9.80;;;;;;;14.08;100.00;93020.44;2546449;23;20341;-82
2023/07/19 04:05:38;;;;;;;20.95;10.32;;;;;;;14.01;100.00;93028.78;2530583;23;20002;-82
2023/07/19 04:06:50;;;;;;;19.17;10.18;;;;;;;14.14;100.00;93034.09;2526458;23;20473;-82
2023/07/19 04:08:01;;;;;;;22.67;9.75;;;;;;;14.07;100.00;93035.81;2524651;23;20058;-83
2023/07/19 04:09:14;;;;;;;21.13;9.95;;;;;;;13.99;100.00;93031.91;2537292;23;20037;-82
2023/07/19 04:10:22;;;;;;;22.00;10.02;;;;;;;14.07;100.00;93032.41;2535266;23;20088;-83
2023/07/19 04:11:33;;;;;;;19.95;9.82;;;;;;;14.00;100.00;93038.00;2523612;23;20018;-83
2023/07/19 04:12:39;;;;;;;19.95;10.77;;;;;;;14.03;100.00;93034.47;2544520;23;20006;-83
2023/07/19 04:13:53;;;;;;;22.77;9.95;;;;;;;14.04;100.00;93028.63;2523930;23;20010;-82
2023/07/19 04:15:00;;;;;;;19.27;9.38;;;;;;;14.02;100.00;93036.41;2523793;23;20517;-82
2023/07/19 04:16:06;;;;;;;23.00;10.20;;;;;;;13.97;100.00;93034.28;2523178;23;20037;-82
2023/07/19 04:17:18;;;;;;;20.13;9.88;;;;;;;13.98;100.00;93037.72;2545920;23;20013;-82
2023/07/19 04:18:26;;;;;;;18.42;10.38;;;;;;;14.01;100.00;93039.53;2534796;23;20080;-83
2023/07/19 04:19:40;;;;;;;18.25;9.38;;;;;;;14.04;100.00;93044.00;2523957;23;20033;-82
2023/07/19 04:21:00;;;;;;;20.95;9.40;;;;;;;14.07;100.00;93037.78;2538867;23;20418;-83
2023/07/19 04:22:09;;;;;;;16.80;9.80;;;;;;;14.08;100.00;93037.31;2535822;23;20160;-83
2023/07/19 04:23:18;;;;;;;25.85;9.85;;;;;;;14.02;100.00;93038.34;2533998;23;20912;-83
2023/07/19 04:24:30;;;;;;;17.05;9.63;;;;;;;14.01;100.00;93034.91;2533958;23;20010;-82
2023/07/19 04:25:44;;;;;;;21.50;10.18;;;;;;;14.02;100.00;93027.59;2525145;23;20188;-82
2023/07/19 04:26:56;;;;;;;21.65;9.93;;;;;;;14.08;100.00;93031.94;2525218;23;20017;-82
2023/07/19 04:28:06;;;;;;;19.27;10.30;;;;;;;14.11;100.00;93028.38;2524603;23;20147;-82
2023/07/19 04:29:19;;;;;;;19.92;9.75;;;;;;;14.14;100.00;93026.78;2546147;23;20028;-83
2023/07/19 04:30:30;;;;;;;20.05;9.77;;;;;;;14.13;100.00;93014.50;2544485;23;20032;-82
2023/07/19 04:31:38;;;;;;;18.05;9.80;;;;;;;14.16;100.00;93027.06;2524366;23;20074;-83
2023/07/19 04:32:46;;;;;;;16.60;10.05;;;;;;;14.13;100.00;93027.94;2546134;23;20418;-82
2023/07/19 04:34:01;;;;;;;20.55;9.77;;;;;;;14.17;100.00;93025.88;2544556;23;20053;-83
2023/07/19 04:35:09;;;;;;;19.70;9.90;;;;;;;14.13;100.00;93017.19;2525715;23;20107;-82
2023/07/19 04:36:21;;;;;;;26.38;10.40;;;;;;;14.26;100.00;93023.22;2523524;23;20010;-82
2023/07/19 04:37:34;;;;;;;26.67;12.23;;;;;;;14.26;100.00;93027.84;2524891;23;20010;-83
2023/07/19 04:38:44;;;;;;;21.65;10.15;;;;;;;14.46;100.00;93020.19;2537371;23;20044;-81
2023/07/19 04:39:52;;;;;;;25.13;10.98;;;;;;;14.43;100.00;93026.44;2546583;23;20013;-83
2023/07/19 04:41:07;;;;;;;19.45;10.15;;;;;;;14.42;100.00;93024.19;2533513;23;20013;-82
2023/07/19 04:42:18;;;;;;;23.52;10.55;;;;;;;14.38;100.00;93029.72;2538897;23;20012;-82
2023/07/19 04:43:28;;;;;;;19.77;10.60;;;;;;;14.44;100.00;93024.50;2532315;23;20010;-82
2023/07/19 04:44:38;;;;;;;23.25;10.98;;;;;;;14.43;100.00;93026.44;2524050;23;20380;-82
2023/07/19 04:45:47;;;;;;;19.08;9.85;;;;;;;14.38;100.00;93026.28;2534229;23;20005;-82
2023/07/19 04:46:55;;;;;;;29.17;15.00;;;;;;;14.51;100.00;93027.69;2546052;23;20139;-83
2023/07/19 04:48:10;;;;;;;22.30;12.30;;;;;;;14.47;100.00;93020.94;2546462;23;20084;-82
2023/07/19 04:49:25;;;;;;;21.95;12.52;;;;;;;14.49;100.00;93032.78;2535418;23;20013;-82
2023/07/19 04:50:38;;;;;;;19.73;10.13;;;;;;;14.56;100.00;93027.13;2526455;23;20335;-82
2023/07/19 04:51:47;;;;;;;20.75;11.15;;;;;;;14.53;100.00;93022.66;2525215;23;20009;-83
2023/07/19 04:52:57;;;;;;;19.80;10.27;;;;;;;14.55;100.00;93022.19;2536600;23;20425;-82
2023/07/19 04:54:07;;;;;;;23.52;10.65;;;;;;;14.51;100.00;93027.69;2546354;23;20281;-82
2023/07/19 04:55:18;;;;;;;19.42;10.35;;;;;;;14.63;100.00;93019.97;2533993;23;20006;-82
2023/07/19 04:56:28;;;;;;;20.08;9.48;;;;;;;14.66;100.00;93027.16;2524492;23;20013;-83
2023/07/19 04:57:37;;;;;;;22.15;10.73;;;;;;;14.63;100.00;93028.06;2536045;23;20002;-82
2023/07/19 04:58:48;;;;;;;24.83;10.88;;;;;;;14.60;100.00;93019.66;2534034;23;20006;-82
2023/07/19 04:59:59;;;;;;;20.70;10.38;;;;;;;14.63;100.00;93026.09;2536475;23;20024;-83
2023/07/19 05:01:08;;;;;;;21.42;10.45;;;;;;;14.70;100.00;93033.13;2534694;23;20005;-82
2023/07/19 05:02:19;;;;;;;20.25;10.70;;;;;;;14.68;100.00;93033.59;2523314;23;20010;-82
2023/07/19 05:03:29;;;;;;;23.02;10.63;;;;;;;14.63;100.00;93028.78;2535734;23;20192;-82
2023/07/19 05:04:41;;;;;;;25.40;10.73;;;;;;;14.68;100.00;93027.47;2544390;23;20009;-82
2023/07/19 05:05:52;;;;;;;20.75;10.75;;;;;;;14.69;100.00;93027.00;2533566;23;20081;-82
2023/07/19 05:07:07;;;;;;;31.25;10.25;;;;;;;14.74;100.00;93031.06;2533536;23;20492;-82
2023/07/19 05:08:10;;;;;;;22.17;11.02;;;;;;;14.76;100.00;93032.13;2546632;23;20009;-83
2023/07/19 05:09:17;;;;;;;20.50;10.20;;;;;;;14.78;100.00;93027.03;2556895;23;20019;-83
2023/07/19 05:10:27;;;;;;;18.73;10.90;;;;;;;14.82;100.00;93033.03;2543808;23;20081;-82
2023/07/19 05:11:37;;;;;;;18.95;11.10;;;;;;;14.77;100.00;93032.88;2522959;23;20433;-82
2023/07/19 05:12:48;;;;;;;21.52;10.52;;;;;;;14.78;100.00;93020.91;2546899;23;20042;-82
2023/07/19 05:13:59;;;;;;;21.85;10.55;;;;;;;14.81;100.00;93025.41;2543783;23;20006;-83
2023/07/19 05:15:08;;;;;;;27.80;11.38;;;;;;;14.80;100.00;93029.31;2524715;23;20013;-83
2023/07/19 05:16:23;;;;;;;20.45;10.60;;;;;;;14.83;100.00;93025.69;2536251;23;20009;-83
2023/07/19 05:17:33;;;;;;;23.33;10.77;;;;;;;14.86;100.00;93025.56;2536699;23;20010;-83
2023/07/19 05:18:42;;;;;;;17.25;11.05;;;;;;;14.93;100.00;93029.19;2538180;23;20032;-82
2023/07/19 05:19:50;;;;;;;23.00;10.55;;;;;;;14.96;100.00;93026.34;2535429;23;20068;-83
2023/07/19 05:21:00;;;;;;;23.02;10.70;;;;;;;14.98;100.00;93029.34;2524935;23;20074;-82